createdAt,value
2018-05-04T00:00:14.821Z,69.70
2018-05-04T00:01:14.999Z,69.32
2018-05-04T00:02:15.180Z,69.70
2018-05-04T00:03:15.361Z,69.32
2018-05-04T00:04:15.536Z,70.27
2018-05-04T00:05:15.714Z,69.89
2018-05-04T00:06:15.889Z,69.85
2018-05-04T00:07:16.072Z,70.72
2018-05-04T00:08:16.248Z,70.05
2018-05-04T00:09:16.430Z,70.81
2018-05-04T00:10:16.607Z,71.28
2018-05-04T00:11:16.783Z,71.28
2018-05-04T00:12:16.966Z,71.38
2018-05-04T00:13:17.134Z,71.38
2018-05-04T00:14:17.314Z,70.90
2018-05-04T00:15:17.496Z,71.38
2018-05-04T00:16:17.673Z,71.09
2018-05-04T00:17:17.863Z,70.90
2018-05-04T00:18:18.020Z,70.72
2018-05-04T00:19:18.203Z,70.62
2018-05-04T00:20:18.377Z,71.28
2018-05-04T00:21:18.555Z,70.81
2018-05-04T00:22:18.735Z,70.62
2018-05-04T00:23:18.914Z,70.72
2018-05-04T00:24:19.096Z,70.81
2018-05-04T00:25:19.266Z,71.00
2018-05-04T00:26:19.444Z,71.00
2018-05-04T00:28:19.795Z,71.72
2018-05-04T00:29:19.969Z,71.53
2018-05-04T00:30:20.152Z,71.25
2018-05-04T00:31:20.327Z,71.34
2018-05-04T00:32:20.508Z,71.15
2018-05-04T00:33:20.681Z,71.34
2018-05-04T00:34:20.928Z,71.53
2018-05-04T00:35:21.045Z,72.20
2018-05-04T00:36:21.221Z,72.30
2018-05-04T00:37:21.696Z,72.11
2018-05-04T00:38:21.574Z,71.82
2018-05-04T00:39:21.754Z,72.30
2018-05-04T00:40:21.936Z,72.39
2018-05-04T00:41:22.115Z,72.58
2018-05-04T00:42:22.296Z,73.15
2018-05-04T00:43:22.472Z,72.86
2018-05-04T00:44:22.650Z,73.06
2018-05-04T00:45:22.831Z,72.58
2018-05-04T00:46:23.001Z,72.77
2018-05-04T00:47:23.185Z,72.77
2018-05-04T00:48:23.364Z,72.96
2018-05-04T00:49:23.541Z,73.15
2018-05-04T00:50:23.717Z,72.58
2018-05-04T00:51:23.893Z,72.49
2018-05-04T00:52:24.078Z,72.67
2018-05-04T00:53:24.248Z,72.77
2018-05-04T00:54:24.427Z,72.39
2018-05-04T00:55:24.610Z,72.58
2018-05-04T00:56:24.777Z,72.86
2018-05-04T00:57:24.958Z,72.67
2018-05-04T00:58:25.136Z,72.77
2018-05-04T00:59:25.337Z,72.67
2018-05-04T01:00:25.491Z,72.30
2018-05-04T01:01:25.668Z,72.96
2018-05-04T01:02:25.845Z,72.77
2018-05-04T01:03:26.020Z,72.58
2018-05-04T01:04:26.191Z,72.96
2018-05-04T01:05:26.367Z,72.49
2018-05-04T01:06:26.533Z,72.39
2018-05-04T01:07:26.712Z,72.58
2018-05-04T01:08:26.892Z,72.39
2018-05-04T01:09:27.072Z,72.11
2018-05-04T01:10:27.251Z,71.72
2018-05-04T01:11:27.427Z,71.91
2018-05-04T01:12:27.611Z,71.91
2018-05-04T01:13:27.778Z,72.01
2018-05-04T01:14:27.967Z,71.72
2018-05-04T01:15:28.147Z,71.82
2018-05-04T01:16:28.311Z,72.11
2018-05-04T01:17:28.485Z,71.63
2018-05-04T01:18:28.664Z,72.01
2018-05-04T01:19:28.842Z,72.30
2018-05-04T01:20:29.024Z,72.77
2018-05-04T01:21:29.195Z,71.91
2018-05-04T01:22:29.377Z,71.82
2018-05-04T01:23:29.555Z,71.91
2018-05-04T01:24:29.738Z,72.35
2018-05-04T01:25:29.905Z,72.92
2018-05-04T01:26:30.087Z,72.58
2018-05-04T01:27:30.262Z,73.21
2018-05-04T01:28:30.437Z,72.83
2018-05-04T01:29:30.616Z,73.21
2018-05-04T01:30:30.795Z,73.88
2018-05-04T01:31:30.974Z,73.69
2018-05-04T01:32:31.146Z,74.35
2018-05-04T01:33:31.324Z,74.26
2018-05-04T01:35:31.670Z,74.16
2018-05-04T01:36:31.851Z,74.16
2018-05-04T01:37:32.027Z,74.16
2018-05-04T01:38:32.209Z,74.73
2018-05-04T01:39:32.391Z,74.88
2018-05-04T01:40:32.563Z,74.60
2018-05-04T01:41:32.741Z,74.73
2018-05-04T01:42:32.921Z,74.44
2018-05-04T01:43:33.089Z,75.30
2018-05-04T01:45:33.439Z,74.16
2018-05-04T01:46:33.612Z,74.35
2018-05-04T01:47:33.794Z,74.44
2018-05-04T01:48:33.972Z,74.88
2018-05-04T01:49:34.143Z,74.82
2018-05-04T01:50:34.322Z,74.63
2018-05-04T01:51:34.500Z,74.54
2018-05-04T01:52:34.676Z,74.82
2018-05-04T01:53:34.849Z,74.54
2018-05-04T01:54:35.026Z,74.79
2018-05-04T01:55:35.208Z,74.69
2018-05-04T01:56:35.379Z,75.07
2018-05-04T01:57:35.555Z,75.26
2018-05-04T01:58:35.735Z,74.79
2018-05-04T01:59:35.903Z,74.69
2018-05-04T02:00:36.090Z,74.69
2018-05-04T02:01:36.268Z,74.79
2018-05-04T02:02:36.468Z,75.26
2018-05-04T02:03:36.612Z,75.26
2018-05-04T02:04:36.790Z,74.88
2018-05-04T02:05:36.964Z,74.79
2018-05-04T02:06:37.144Z,74.60
2018-05-04T02:07:37.317Z,75.36
2018-05-04T02:08:37.493Z,76.12
2018-05-04T02:09:37.744Z,75.84
2018-05-04T02:10:37.848Z,75.36
2018-05-04T02:11:38.027Z,75.64
2018-05-04T02:12:38.207Z,76.03
2018-05-04T02:13:38.381Z,76.03
2018-05-04T02:14:38.558Z,76.50
2018-05-04T02:15:38.732Z,77.22
2018-05-04T02:16:38.910Z,76.93
2018-05-04T02:17:39.093Z,77.22
2018-05-04T02:18:39.277Z,77.12
2018-05-04T02:19:39.442Z,77.31
2018-05-04T02:20:39.628Z,76.93
2018-05-04T02:21:39.801Z,77.41
2018-05-04T02:22:39.975Z,76.75
2018-05-04T02:23:40.153Z,76.93
2018-05-04T02:24:40.328Z,76.93
2018-05-04T02:25:40.500Z,76.84
2018-05-04T02:26:40.676Z,77.12
2018-05-04T02:27:40.852Z,77.12
2018-05-04T02:28:41.023Z,77.03
2018-05-04T02:29:41.210Z,76.37
2018-05-04T02:30:41.380Z,76.40
2018-05-04T02:31:41.559Z,75.74
2018-05-04T02:32:41.739Z,76.12
2018-05-04T02:33:41.913Z,75.55
2018-05-04T02:34:42.081Z,75.45
2018-05-04T02:35:42.263Z,74.79
2018-05-04T02:36:42.438Z,74.98
2018-05-04T02:37:42.616Z,74.79
2018-05-04T02:38:42.791Z,75.36
2018-05-04T02:39:42.968Z,75.17
2018-05-04T02:40:43.143Z,75.07
2018-05-04T02:41:43.325Z,75.74
2018-05-04T02:42:43.500Z,75.84
2018-05-04T02:43:43.672Z,75.93
2018-05-04T02:44:43.849Z,75.74
2018-05-04T02:45:44.031Z,75.26
2018-05-04T02:46:44.204Z,75.26
2018-05-04T02:47:44.379Z,75.36
2018-05-04T02:48:44.554Z,75.74
2018-05-04T02:49:44.734Z,76.12
2018-05-04T02:50:44.912Z,76.03
2018-05-04T02:51:45.092Z,76.03
2018-05-04T02:52:45.273Z,76.03
2018-05-04T02:53:45.438Z,75.55
2018-05-04T02:54:45.618Z,75.84
2018-05-04T02:55:45.797Z,75.84
2018-05-04T02:56:45.976Z,75.55
2018-05-04T02:57:46.144Z,75.64
2018-05-04T02:58:46.337Z,76.12
2018-05-04T02:59:46.503Z,76.03
2018-05-04T03:00:46.680Z,75.36
2018-05-04T03:01:46.876Z,75.17
2018-05-04T03:02:47.058Z,75.07
2018-05-04T03:03:47.232Z,75.26
2018-05-04T03:04:47.409Z,75.17
2018-05-04T03:05:47.585Z,74.98
2018-05-04T03:06:47.767Z,75.26
2018-05-04T03:07:47.943Z,74.98
2018-05-04T03:08:48.128Z,75.17
2018-05-04T03:09:48.303Z,75.26
2018-05-04T03:10:48.477Z,75.36
2018-05-04T03:11:48.654Z,75.36
2018-05-04T03:12:48.825Z,75.36
2018-05-04T03:13:49.004Z,75.36
2018-05-04T03:14:49.185Z,75.55
2018-05-04T03:15:49.358Z,74.79
2018-05-04T03:16:49.534Z,75.17
2018-05-04T03:17:49.712Z,75.55
2018-05-04T03:18:49.898Z,75.26
2018-05-04T03:19:50.064Z,75.36
2018-05-04T03:20:50.241Z,75.07
2018-05-04T03:21:50.418Z,75.07
2018-05-04T03:22:50.595Z,74.60
2018-05-04T03:23:50.773Z,75.55
2018-05-04T03:24:50.947Z,75.07
2018-05-04T03:25:51.121Z,75.36
2018-05-04T03:26:51.302Z,76.03
2018-05-04T03:27:51.479Z,75.84
2018-05-04T03:28:51.900Z,75.74
2018-05-04T03:29:51.829Z,75.74
2018-05-04T03:30:52.009Z,76.18
2018-05-04T03:31:52.192Z,76.37
2018-05-04T03:32:52.357Z,75.84
2018-05-04T03:33:52.534Z,76.37
2018-05-04T03:34:52.714Z,76.37
2018-05-04T03:35:52.898Z,76.37
2018-05-04T03:36:53.060Z,76.12
2018-05-04T03:37:53.251Z,76.40
2018-05-04T03:38:53.430Z,76.03
2018-05-04T03:39:53.604Z,75.89
2018-05-04T03:40:53.779Z,75.74
2018-05-04T03:41:53.962Z,75.99
2018-05-04T03:42:54.183Z,76.08
2018-05-04T03:43:54.306Z,76.27
2018-05-04T03:44:54.486Z,75.99
2018-05-04T03:45:54.671Z,76.37
2018-05-04T03:46:54.844Z,76.46
2018-05-04T03:47:55.015Z,76.46
2018-05-04T03:48:55.212Z,76.08
2018-05-04T03:49:55.372Z,76.37
2018-05-04T03:50:55.546Z,75.89
2018-05-04T03:51:55.759Z,76.27
2018-05-04T03:52:55.901Z,75.89
2018-05-04T03:53:56.073Z,75.99
2018-05-04T03:54:56.250Z,76.18
2018-05-04T03:55:56.428Z,76.08
2018-05-04T03:56:56.602Z,76.27
2018-05-04T03:57:57.762Z,76.18
2018-05-04T03:58:56.953Z,76.37
2018-05-04T03:59:57.121Z,76.08
2018-05-04T04:00:57.299Z,76.56
2018-05-04T04:01:57.473Z,76.37
2018-05-04T04:02:57.657Z,76.84
2018-05-04T04:03:57.835Z,75.79
2018-05-04T04:04:58.010Z,76.18
2018-05-04T04:05:58.186Z,76.12
2018-05-04T04:06:58.364Z,76.03
2018-05-04T04:07:58.541Z,76.18
2018-05-04T04:08:58.722Z,75.99
2018-05-04T04:09:58.891Z,76.31
2018-05-04T04:10:59.069Z,75.84
2018-05-04T04:11:59.246Z,76.40
2018-05-04T04:12:59.421Z,76.08
2018-05-04T04:13:59.595Z,75.70
2018-05-04T04:14:59.767Z,76.37
2018-05-04T04:15:59.952Z,76.27
2018-05-04T04:17:00.127Z,76.27
2018-05-04T04:18:00.317Z,76.18
2018-05-04T04:19:00.470Z,76.18
2018-05-04T04:20:00.646Z,76.18
2018-05-04T04:21:00.829Z,76.27
2018-05-04T04:22:00.999Z,75.93
2018-05-04T04:23:01.177Z,75.17
2018-05-04T04:24:01.353Z,74.41
2018-05-04T04:25:01.531Z,73.21
2018-05-04T04:26:01.710Z,72.92
2018-05-04T04:27:01.885Z,71.91
2018-05-04T04:28:02.062Z,72.07
2018-05-04T04:29:02.238Z,71.88
2018-05-04T04:30:02.418Z,71.50
2018-05-04T04:31:02.591Z,70.87
2018-05-04T04:32:02.770Z,70.68
2018-05-04T04:33:02.949Z,69.54
2018-05-04T04:34:03.124Z,69.15
2018-05-04T04:35:03.305Z,68.24
2018-05-04T04:36:03.489Z,67.57
2018-05-04T04:37:03.663Z,67.29
2018-05-04T04:38:03.852Z,67.00
2018-05-04T04:39:04.014Z,67.07
2018-05-04T04:40:04.198Z,68.05
2018-05-04T04:41:04.393Z,68.33
2018-05-04T04:42:04.560Z,68.05
2018-05-04T04:43:04.744Z,67.29
2018-05-04T04:44:04.918Z,66.08
2018-05-04T04:45:05.098Z,66.46
2018-05-04T04:46:05.283Z,64.84
2018-05-04T04:47:05.456Z,63.83
2018-05-04T04:48:05.637Z,62.34
2018-05-04T04:49:05.819Z,61.73
2018-05-04T04:50:05.987Z,62.59
2018-05-04T04:51:06.176Z,62.24
2018-05-04T04:52:06.350Z,61.29
2018-05-04T04:53:06.528Z,60.43
2018-05-04T04:54:06.707Z,60.91
2018-05-04T04:55:06.889Z,60.65
2018-05-04T04:56:07.075Z,59.79
2018-05-04T04:57:07.251Z,59.73
2018-05-04T04:58:07.434Z,58.48
2018-05-04T04:59:07.607Z,59.12
2018-05-04T05:00:07.795Z,58.87
2018-05-04T05:01:07.969Z,57.34
2018-05-04T05:02:08.166Z,57.63
2018-05-04T05:03:08.333Z,57.65
2018-05-04T05:04:08.519Z,56.45
2018-05-04T05:05:08.706Z,55.49
2018-05-04T05:06:08.889Z,54.34
2018-05-04T05:07:09.074Z,53.96
2018-05-04T05:08:09.265Z,54.06
2018-05-04T05:09:09.452Z,54.27
2018-05-04T05:10:09.638Z,53.67
2018-05-04T05:11:09.817Z,54.89
2018-05-04T05:12:10.020Z,56.32
2018-05-04T05:13:10.203Z,55.20
2018-05-04T05:14:10.384Z,53.86
2018-05-04T05:15:10.565Z,54.82
2018-05-04T05:16:10.754Z,53.77
2018-05-04T05:17:10.933Z,53.89
2018-05-04T05:18:11.134Z,53.13
2018-05-04T05:19:11.309Z,51.72
2018-05-04T05:20:11.492Z,51.15
2018-05-04T05:21:11.678Z,50.02
2018-05-04T05:22:11.862Z,49.66
2018-05-04T05:23:12.047Z,48.80
2018-05-04T05:24:12.228Z,47.68
2018-05-04T05:25:12.418Z,46.94
2018-05-04T05:26:12.601Z,46.62
2018-05-04T05:27:12.788Z,46.84
2018-05-04T05:28:12.974Z,45.98
2018-05-04T05:29:13.169Z,45.98
2018-05-04T05:30:13.347Z,46.05
2018-05-04T05:31:13.538Z,46.25
2018-05-04T05:32:13.716Z,46.62
2018-05-04T05:33:13.903Z,46.72
2018-05-04T05:34:14.377Z,47.49
2018-05-04T05:35:14.280Z,46.62
2018-05-04T05:36:14.464Z,46.17
2018-05-04T05:37:14.651Z,45.96
2018-05-04T05:38:14.839Z,45.89
2018-05-04T05:39:15.028Z,45.12
2018-05-04T05:40:15.216Z,44.66
2018-05-04T05:41:15.406Z,44.26
2018-05-04T05:42:15.588Z,45.00
2018-05-04T05:43:15.775Z,45.86
2018-05-04T05:44:15.971Z,44.93
2018-05-04T05:45:16.140Z,44.56
2018-05-04T05:46:16.332Z,43.80
2018-05-04T05:47:16.527Z,43.44
2018-05-04T05:48:16.703Z,43.36
2018-05-04T05:49:16.889Z,43.27
2018-05-04T05:50:17.082Z,43.27
2018-05-04T05:51:17.260Z,43.44
2018-05-04T05:52:17.456Z,43.90
2018-05-04T05:53:17.631Z,43.41
2018-05-04T05:54:17.819Z,43.51
2018-05-04T05:55:18.008Z,43.60
2018-05-04T05:56:18.196Z,44.81
2018-05-04T05:57:18.378Z,45.21
2018-05-04T05:58:18.562Z,44.64
2018-05-04T05:59:18.754Z,44.93
2018-05-04T06:00:18.940Z,44.76
2018-05-04T06:01:19.119Z,43.90
2018-05-04T06:02:19.308Z,43.60
2018-05-04T06:03:19.497Z,43.70
2018-05-04T06:04:19.680Z,44.64
2018-05-04T06:05:19.870Z,44.37
2018-05-04T06:06:20.056Z,44.30
2018-05-04T06:07:20.246Z,43.82
2018-05-04T06:08:20.439Z,43.36
2018-05-04T06:09:20.666Z,43.73
2018-05-04T06:10:20.817Z,43.53
2018-05-04T06:11:21.003Z,43.63
2018-05-04T06:12:21.191Z,43.15
2018-05-04T06:13:21.385Z,43.24
2018-05-04T06:14:21.564Z,43.44
2018-05-04T06:15:21.753Z,43.53
2018-05-04T06:16:21.937Z,43.46
2018-05-04T06:17:22.127Z,43.44
2018-05-04T06:18:22.315Z,43.99
2018-05-04T06:19:22.502Z,44.76
2018-05-04T06:20:22.686Z,44.27
2018-05-04T06:21:22.879Z,44.37
2018-05-04T06:22:23.070Z,44.11
2018-05-04T06:23:23.258Z,44.01
2018-05-04T06:24:23.444Z,43.36
2018-05-04T06:25:23.633Z,42.98
2018-05-04T06:26:23.824Z,42.50
2018-05-04T06:27:24.003Z,43.82
2018-05-04T06:28:24.193Z,43.65
2018-05-04T06:29:24.378Z,42.60
2018-05-04T06:30:24.568Z,42.02
2018-05-04T06:31:24.754Z,42.19
2018-05-04T06:32:24.948Z,42.60
2018-05-04T06:33:25.144Z,42.77
2018-05-04T06:34:25.310Z,42.43
2018-05-04T06:35:25.501Z,41.37
2018-05-04T06:36:25.686Z,41.54
2018-05-04T06:37:25.871Z,41.35
2018-05-04T06:38:26.054Z,41.20
2018-05-04T06:39:26.251Z,40.14
2018-05-04T06:40:26.443Z,39.97
2018-05-04T06:41:26.624Z,39.68
2018-05-04T06:42:26.825Z,39.11
2018-05-04T06:43:27.005Z,38.35
2018-05-04T06:44:27.193Z,38.45
2018-05-04T06:45:27.383Z,38.24
2018-05-04T06:46:27.572Z,38.72
2018-05-04T06:47:28.001Z,39.28
2018-05-04T06:48:27.973Z,39.93
2018-05-04T06:49:28.163Z,39.64
2018-05-04T06:50:28.357Z,40.87
2018-05-04T06:51:28.563Z,40.70
2018-05-04T06:52:28.728Z,40.50
2018-05-04T06:53:29.004Z,39.85
2018-05-04T06:54:29.087Z,39.66
2018-05-04T06:55:29.268Z,39.95
2018-05-04T06:56:29.454Z,39.83
2018-05-04T06:57:29.656Z,39.76
2018-05-04T06:58:29.843Z,39.66
2018-05-04T06:59:30.115Z,39.64
2018-05-04T07:00:30.219Z,39.39
2018-05-04T07:01:30.399Z,39.28
2018-05-04T07:02:30.588Z,40.14
2018-05-04T07:03:30.777Z,39.47
2018-05-04T07:04:30.964Z,38.93
2018-05-04T07:05:31.144Z,38.34
2018-05-04T07:06:31.335Z,38.12
2018-05-04T07:07:31.523Z,38.10
2018-05-04T07:08:31.711Z,38.70
2018-05-04T07:09:31.907Z,38.43
2018-05-04T07:10:32.121Z,37.26
2018-05-04T07:11:32.273Z,37.27
2018-05-04T07:12:32.461Z,36.91
2018-05-04T07:13:32.648Z,36.51
2018-05-04T07:14:32.836Z,37.55
2018-05-04T07:15:33.033Z,37.08
2018-05-04T07:16:33.211Z,36.90
2018-05-04T07:17:33.398Z,36.24
2018-05-04T07:19:33.758Z,35.39
2018-05-04T07:20:33.932Z,35.49
2018-05-04T07:21:34.126Z,34.41
2018-05-04T07:22:34.324Z,34.31
2018-05-04T07:23:34.501Z,34.80
2018-05-04T07:24:34.688Z,34.61
2018-05-04T07:25:34.874Z,34.05
2018-05-04T07:26:35.050Z,33.56
2018-05-04T07:27:35.239Z,33.77
2018-05-04T07:28:35.497Z,32.79
2018-05-04T07:29:35.617Z,31.95
2018-05-04T07:30:35.833Z,32.41
2018-05-04T07:31:36.056Z,32.52
2018-05-04T07:32:36.206Z,31.85
2018-05-04T07:33:36.399Z,31.65
2018-05-04T07:34:36.572Z,31.27
2018-05-04T07:35:36.765Z,32.57
2018-05-04T07:36:36.958Z,33.34
2018-05-04T07:37:37.138Z,32.78
2018-05-04T07:38:37.376Z,32.51
2018-05-04T07:39:37.827Z,32.21
2018-05-04T07:40:37.716Z,31.75
2018-05-04T07:41:37.902Z,31.45
2018-05-04T07:42:38.091Z,31.16
2018-05-04T07:43:38.280Z,31.35
2018-05-04T07:44:38.463Z,31.54
2018-05-04T07:45:38.652Z,32.76
2018-05-04T07:46:38.836Z,33.61
2018-05-04T07:47:39.028Z,34.28
2018-05-04T07:48:39.248Z,33.51
2018-05-04T07:49:39.403Z,32.75
2018-05-04T07:50:39.661Z,31.99
2018-05-04T07:51:39.773Z,31.72
2018-05-04T07:52:39.959Z,31.34
2018-05-04T07:53:40.148Z,31.15
2018-05-04T07:54:40.330Z,31.24
2018-05-04T07:55:40.521Z,31.24
2018-05-04T07:56:40.704Z,31.70
2018-05-04T07:57:40.896Z,31.59
2018-05-04T07:58:41.102Z,32.36
2018-05-04T07:59:41.270Z,32.65
2018-05-04T08:00:41.460Z,32.46
2018-05-04T08:01:41.653Z,31.99
2018-05-04T08:02:41.835Z,31.72
2018-05-04T08:03:42.019Z,31.51
2018-05-04T08:04:42.207Z,31.72
2018-05-04T08:05:42.389Z,31.26
2018-05-04T08:06:42.585Z,30.58
2018-05-04T08:07:42.764Z,30.76
2018-05-04T08:08:42.952Z,30.74
2018-05-04T08:09:43.132Z,31.32
2018-05-04T08:10:43.317Z,31.32
2018-05-04T08:11:43.510Z,31.24
2018-05-04T08:12:43.697Z,30.93
2018-05-04T08:13:43.887Z,30.66
2018-05-04T08:14:44.084Z,30.26
2018-05-04T08:15:44.274Z,30.35
2018-05-04T08:16:44.453Z,29.97
2018-05-04T08:17:44.639Z,29.88
2018-05-04T08:18:44.828Z,30.15
2018-05-04T08:19:45.017Z,29.96
2018-05-04T08:20:45.198Z,30.04
2018-05-04T08:21:45.385Z,29.86
2018-05-04T08:22:45.586Z,29.58
2018-05-04T08:23:45.765Z,29.11
2018-05-04T08:24:45.931Z,29.21
2018-05-04T08:25:46.120Z,29.11
2018-05-04T08:26:46.308Z,28.61
2018-05-04T08:27:46.492Z,29.30
2018-05-04T08:28:46.706Z,29.22
2018-05-04T08:29:46.876Z,29.19
2018-05-04T08:30:47.058Z,29.69
2018-05-04T08:31:47.255Z,29.49
2018-05-04T08:32:47.431Z,28.84
2018-05-04T08:33:47.621Z,28.55
2018-05-04T08:34:47.802Z,28.61
2018-05-04T08:35:47.988Z,28.93
2018-05-04T08:36:48.179Z,28.55
2018-05-04T08:37:48.379Z,28.07
2018-05-04T08:38:48.538Z,27.98
2018-05-04T08:39:48.708Z,28.26
2018-05-04T08:40:49.027Z,28.16
2018-05-04T08:41:49.085Z,28.91
2018-05-04T08:42:49.324Z,29.58
2018-05-04T08:43:49.458Z,29.37
2018-05-04T08:44:49.650Z,30.05
2018-05-04T08:45:49.834Z,29.48
2018-05-04T08:46:50.049Z,29.77
2018-05-04T08:47:50.204Z,29.97
2018-05-04T08:48:50.390Z,28.64
2018-05-04T08:49:50.580Z,29.10
2018-05-04T08:50:50.755Z,30.41
2018-05-04T08:51:50.938Z,30.90
2018-05-04T08:52:51.130Z,30.25
2018-05-04T08:53:51.308Z,29.79
2018-05-04T08:54:51.500Z,29.40
2018-05-04T08:56:51.857Z,28.74
2018-05-04T08:57:52.065Z,29.04
2018-05-04T08:58:52.246Z,29.13
2018-05-04T08:59:52.430Z,29.03
2018-05-04T09:00:52.619Z,29.32
2018-05-04T09:01:52.798Z,29.33
2018-05-04T09:02:52.981Z,28.75
2018-05-04T09:03:53.165Z,28.85
2018-05-04T09:04:53.358Z,28.55
2018-05-04T09:05:53.543Z,27.49
2018-05-04T09:06:53.725Z,27.87
2018-05-04T09:07:53.911Z,29.03
2018-05-04T09:08:54.098Z,29.21
2018-05-04T09:09:54.280Z,29.41
2018-05-04T09:10:54.467Z,28.84
2018-05-04T09:11:54.650Z,29.04
2018-05-04T09:12:54.838Z,28.93
2018-05-04T09:13:55.024Z,28.47
2018-05-04T09:14:55.214Z,27.89
2018-05-04T09:15:55.394Z,28.08
2018-05-04T09:16:55.843Z,28.56
2018-05-04T09:17:55.804Z,27.61
2018-05-04T09:18:55.981Z,27.98
2018-05-04T09:19:56.204Z,28.29
2018-05-04T09:20:56.354Z,27.24
2018-05-04T09:21:56.530Z,27.44
2018-05-04T09:22:56.731Z,27.23
2018-05-04T09:23:56.932Z,27.13
2018-05-04T09:24:57.112Z,26.75
2018-05-04T09:25:57.290Z,26.17
2018-05-04T09:26:57.528Z,25.88
2018-05-04T09:27:57.683Z,25.69
2018-05-04T09:28:57.877Z,26.17
2018-05-04T09:29:58.056Z,26.64
2018-05-04T09:30:58.346Z,26.25
2018-05-04T09:31:58.424Z,27.13
2018-05-04T09:32:58.618Z,27.04
2018-05-04T09:33:58.798Z,26.53
2018-05-04T09:34:58.989Z,27.48
2018-05-04T09:35:59.168Z,28.33
2018-05-04T09:36:59.389Z,28.44
2018-05-04T09:37:59.794Z,28.45
2018-05-04T09:38:59.735Z,27.98
2018-05-04T09:39:59.914Z,27.31
2018-05-04T09:41:00.098Z,26.72
2018-05-04T09:42:00.291Z,27.48
2018-05-04T09:43:00.484Z,27.50
2018-05-04T09:44:00.660Z,27.24
2018-05-04T09:45:00.849Z,26.48
2018-05-04T09:46:01.028Z,26.20
2018-05-04T09:47:01.224Z,26.37
2018-05-04T09:48:01.639Z,26.06
2018-05-04T09:49:01.695Z,27.02
2018-05-04T09:50:01.790Z,26.94
2018-05-04T09:51:01.952Z,26.27
2018-05-04T09:52:02.134Z,26.86
2018-05-04T09:53:02.321Z,26.37
2018-05-04T09:54:02.497Z,26.75
2018-05-04T09:55:02.683Z,27.51
2018-05-04T09:56:03.006Z,27.33
2018-05-04T09:57:03.056Z,27.24
2018-05-04T09:58:03.237Z,27.16
2018-05-04T09:59:03.431Z,26.67
2018-05-04T10:00:03.625Z,26.17
2018-05-04T10:01:03.810Z,26.65
2018-05-04T10:02:03.987Z,26.94
2018-05-04T10:03:04.176Z,26.75
2018-05-04T10:04:04.366Z,27.31
2018-05-04T10:05:04.555Z,27.91
2018-05-04T10:06:04.741Z,27.71
2018-05-04T10:07:04.938Z,27.34
2018-05-04T10:08:05.116Z,27.33
2018-05-04T10:09:05.625Z,28.29
2018-05-04T10:10:05.491Z,28.74
2018-05-04T10:11:05.685Z,28.85
2018-05-04T10:12:05.861Z,29.33
2018-05-04T10:13:06.045Z,29.81
2018-05-04T10:14:06.265Z,29.81
2018-05-04T10:15:06.439Z,30.39
2018-05-04T10:16:06.634Z,30.29
2018-05-04T10:17:06.790Z,30.21
2018-05-04T10:18:07.003Z,28.77
2018-05-04T10:19:07.168Z,28.96
2018-05-04T10:20:07.387Z,28.95
2018-05-04T10:21:07.543Z,29.81
2018-05-04T10:22:07.730Z,30.29
2018-05-04T10:23:08.151Z,30.39
2018-05-04T10:24:08.103Z,30.00
2018-05-04T10:25:08.398Z,30.10
2018-05-04T10:26:08.454Z,29.73
2018-05-04T10:27:08.638Z,28.78
2018-05-04T10:28:08.828Z,29.06
2018-05-04T10:29:09.018Z,29.44
2018-05-04T10:30:09.199Z,30.02
2018-05-04T10:31:09.388Z,30.02
2018-05-04T10:32:09.574Z,30.28
2018-05-04T10:33:09.760Z,30.77
2018-05-04T10:34:10.291Z,30.21
2018-05-04T10:35:10.491Z,30.29
2018-05-04T10:36:10.987Z,30.68
2018-05-04T10:37:10.543Z,31.69
2018-05-04T10:38:10.747Z,32.93
2018-05-04T10:39:10.923Z,33.15
2018-05-04T10:40:11.113Z,32.97
2018-05-04T10:41:11.298Z,31.93
2018-05-04T10:42:11.483Z,31.64
2018-05-04T10:43:11.687Z,31.64
2018-05-04T10:44:11.860Z,32.01
2018-05-04T10:45:12.123Z,32.12
2018-05-04T10:46:12.219Z,31.74
2018-05-04T10:47:12.410Z,31.82
2018-05-04T10:48:12.594Z,32.95
2018-05-04T10:49:12.787Z,32.97
2018-05-04T10:50:12.965Z,33.64
2018-05-04T10:51:13.151Z,33.08
2018-05-04T10:52:13.339Z,34.14
2018-05-04T10:53:13.526Z,33.08
2018-05-04T10:55:13.893Z,33.29
2018-05-04T10:56:14.077Z,32.73
2018-05-04T10:57:14.343Z,33.18
2018-05-04T10:58:14.505Z,33.48
2018-05-04T10:59:14.635Z,33.00
2018-05-04T11:00:14.833Z,33.95
2018-05-04T11:01:15.058Z,35.16
2018-05-04T11:02:15.197Z,35.93
2018-05-04T11:03:15.390Z,36.13
2018-05-04T11:04:15.654Z,36.41
2018-05-04T11:05:15.797Z,36.33
2018-05-04T11:06:15.938Z,36.13
2018-05-04T11:07:16.121Z,36.22
2018-05-04T11:08:16.320Z,36.43
2018-05-04T11:09:16.489Z,35.85
2018-05-04T11:10:16.678Z,35.30
2018-05-04T11:11:16.850Z,35.39
2018-05-04T11:12:17.042Z,34.51
2018-05-04T11:13:17.219Z,35.57
2018-05-04T11:14:17.406Z,35.95
2018-05-04T11:15:17.587Z,35.77
2018-05-04T11:16:17.796Z,35.76
2018-05-04T11:17:18.059Z,35.97
2018-05-04T11:18:18.110Z,35.58
2018-05-04T11:19:18.294Z,35.10
2018-05-04T11:20:18.455Z,35.22
2018-05-04T11:21:18.618Z,34.74
2018-05-04T11:22:18.797Z,34.91
2018-05-04T11:23:18.976Z,34.53
2018-05-04T11:24:19.157Z,34.74
2018-05-04T11:25:19.409Z,34.35
2018-05-04T11:26:19.537Z,34.62
2018-05-04T11:27:19.711Z,34.91
2018-05-04T11:28:19.914Z,34.41
2018-05-04T11:29:20.078Z,35.30
2018-05-04T11:30:20.470Z,35.39
2018-05-04T11:31:20.444Z,35.20
2018-05-04T11:32:20.623Z,35.83
2018-05-04T11:33:20.808Z,36.86
2018-05-04T11:34:20.979Z,37.55
2018-05-04T11:35:21.164Z,37.08
2018-05-04T11:36:21.353Z,37.16
2018-05-04T11:37:21.526Z,37.24
2018-05-04T11:38:21.705Z,38.49
2018-05-04T11:39:21.889Z,38.10
2018-05-04T11:40:22.072Z,37.26
2018-05-04T11:41:22.261Z,36.30
2018-05-04T11:42:22.433Z,36.68
2018-05-04T11:43:22.620Z,36.51
2018-05-04T11:44:24.008Z,36.49
2018-05-04T11:45:23.172Z,36.88
2018-05-04T11:46:23.134Z,36.13
2018-05-04T11:47:23.310Z,36.22
2018-05-04T11:48:23.497Z,36.32
2018-05-04T11:49:24.107Z,36.51
2018-05-04T11:50:23.890Z,36.38
2018-05-04T11:51:24.072Z,36.86
2018-05-04T11:52:24.265Z,36.86
2018-05-04T11:53:24.445Z,37.43
2018-05-04T11:54:24.624Z,37.24
2018-05-04T11:55:24.856Z,37.16
2018-05-04T11:56:24.988Z,36.78
2018-05-04T11:57:25.173Z,37.15
2018-05-04T11:58:25.356Z,36.97
2018-05-04T11:59:25.573Z,37.15
2018-05-04T12:00:25.719Z,37.24
2018-05-04T12:01:25.909Z,36.97
2018-05-04T12:02:26.142Z,36.20
2018-05-04T12:04:26.478Z,37.26
2018-05-04T12:05:26.655Z,37.18
2018-05-04T12:06:26.841Z,37.20
2018-05-04T12:07:27.025Z,36.82
2018-05-04T12:08:27.200Z,36.82
2018-05-04T12:09:27.384Z,36.05
2018-05-04T12:10:27.561Z,36.05
2018-05-04T12:11:27.757Z,36.24
2018-05-04T12:12:27.964Z,36.35
2018-05-04T12:13:28.126Z,36.35
2018-05-04T12:14:28.305Z,36.25
2018-05-04T12:15:28.484Z,36.15
2018-05-04T12:16:28.760Z,36.97
2018-05-04T12:17:28.854Z,38.41
2018-05-04T12:18:29.056Z,38.51
2018-05-04T12:19:29.220Z,38.34
2018-05-04T12:20:29.406Z,38.14
2018-05-04T12:21:29.595Z,38.26
2018-05-04T12:22:29.778Z,37.30
2018-05-04T12:23:29.964Z,37.76
2018-05-04T12:24:30.152Z,37.49
2018-05-04T12:25:30.332Z,37.85
2018-05-04T12:26:30.528Z,38.07
2018-05-04T12:27:30.707Z,37.97
2018-05-04T12:28:30.892Z,37.51
2018-05-04T12:29:31.078Z,38.14
2018-05-04T12:30:31.299Z,38.53
2018-05-04T12:31:31.451Z,38.43
2018-05-04T12:32:31.631Z,38.53
2018-05-04T12:33:31.821Z,38.72
2018-05-04T12:34:32.007Z,38.93
2018-05-04T12:35:32.192Z,38.16
2018-05-04T12:36:32.376Z,39.08
2018-05-04T12:37:32.560Z,39.73
2018-05-04T12:38:32.797Z,40.41
2018-05-04T12:39:32.924Z,39.93
2018-05-04T12:40:33.113Z,40.67
2018-05-04T12:41:33.302Z,41.08
2018-05-04T12:42:33.506Z,41.06
2018-05-04T12:43:33.651Z,40.99
2018-05-04T12:44:33.840Z,40.99
2018-05-04T12:45:34.020Z,40.81
2018-05-04T12:46:34.206Z,40.16
2018-05-04T12:47:34.379Z,39.97
2018-05-04T12:48:34.557Z,39.56
2018-05-04T12:49:34.747Z,40.72
2018-05-04T12:50:34.932Z,41.00
2018-05-04T12:51:35.119Z,40.55
2018-05-04T12:52:35.290Z,39.97
2018-05-04T12:53:35.491Z,40.06
2018-05-04T12:54:35.664Z,40.08
2018-05-04T12:55:35.856Z,40.08
2018-05-04T12:56:36.033Z,39.33
2018-05-04T12:57:36.287Z,39.62
2018-05-04T12:58:36.463Z,38.47
2018-05-04T12:59:36.573Z,38.56
2018-05-04T13:00:37.975Z,38.56
2018-05-04T13:01:37.462Z,38.47